sensor_id;sensor_type;location;lat;lon;timestamp;P1;P2;P0
65360;PMS5003;51958;55.018;73.536;2023-04-01T00:01:54;0.00;0.00;0.00
65360;PMS5003;51958;55.018;73.536;2023-04-01T00:04:55;1.00;0.00;0.00
65360;PMS5003;51958;55.018;73.536;2023-04-01T00:07:56;2.00;1.00;0.00
65360;PMS5003;51958;55.018;73.536;2023-04-01T00:11:08;2.00;2.00;0.00
65360;PMS5003;51958;55.018;73.536;2023-04-01T00:14:09;2.00;2.00;0.00
65360;PMS5003;51958;55.018;73.536;2023-04-01T00:17:11;2.00;1.00;0.00
65360;PMS5003;51958;55.018;73.536;2023-04-01T00:20:12;1.00;1.00;0.00
65360;PMS5003;51958;55.018;73.536;2023-04-01T00:23:14;2.00;1.00;0.00
65360;PMS5003;51958;55.018;73.536;2023-04-01T00:26:25;0.00;0.00;0.00
65360;PMS5003;51958;55.018;73.536;2023-04-01T00:29:27;0.00;0.00;0.00
65360;PMS5003;51958;55.018;73.536;2023-04-01T00:32:29;0.00;0.00;0.00
65360;PMS5003;51958;55.018;73.536;2023-04-01T00:35:31;0.00;0.00;0.00
65360;PMS5003;51958;55.018;73.536;2023-04-01T00:38:37;0.00;0.00;0.00
65360;PMS5003;51958;55.018;73.536;2023-04-01T00:41:44;2.00;2.00;0.00
65360;PMS5003;51958;55.018;73.536;2023-04-01T00:44:46;2.00;1.50;0.00
65360;PMS5003;51958;55.018;73.536;2023-04-01T00:47:48;2.00;1.00;0.00
65360;PMS5003;51958;55.018;73.536;2023-04-01T00:50:54;0.00;0.00;0.00
65360;PMS5003;51958;55.018;73.536;2023-04-01T00:53:58;0.00;0.00;0.00
65360;PMS5003;51958;55.018;73.536;2023-04-01T00:57:13;1.50;0.50;0.00
65360;PMS5003;51958;55.018;73.536;2023-04-01T01:00:16;3.50;3.00;0.00
65360;PMS5003;51958;55.018;73.536;2023-04-01T01:03:17;6.50;4.00;1.00
65360;PMS5003;51958;55.018;73.536;2023-04-01T01:22:25;5.00;4.00;1.00
65360;PMS5003;51958;55.018;73.536;2023-04-01T01:32:30;2.00;2.00;0.00
65360;PMS5003;51958;55.018;73.536;2023-04-01T01:35:49;2.00;2.00;0.00
65360;PMS5003;51958;55.018;73.536;2023-04-01T01:39:03;3.00;3.00;0.00
65360;PMS5003;51958;55.018;73.536;2023-04-01T01:42:13;3.00;3.00;0.00
65360;PMS5003;51958;55.018;73.536;2023-04-01T01:45:15;3.67;3.33;1.00
65360;PMS5003;51958;55.018;73.536;2023-04-01T01:48:19;5.00;5.00;3.00
65360;PMS5003;51958;55.018;73.536;2023-04-01T01:51:21;3.50;3.50;1.00
65360;PMS5003;51958;55.018;73.536;2023-04-01T01:54:23;3.00;2.00;0.00
65360;PMS5003;51958;55.018;73.536;2023-04-01T01:57:34;3.00;1.00;0.00
65360;PMS5003;51958;55.018;73.536;2023-04-01T02:00:39;4.00;3.00;0.00
65360;PMS5003;51958;55.018;73.536;2023-04-01T02:03:52;4.00;3.00;1.00
65360;PMS5003;51958;55.018;73.536;2023-04-01T02:07:03;5.00;3.33;1.00
65360;PMS5003;51958;55.018;73.536;2023-04-01T02:10:05;2.00;2.00;1.00
65360;PMS5003;51958;55.018;73.536;2023-04-01T02:13:14;3.00;2.67;1.00
65360;PMS5003;51958;55.018;73.536;2023-04-01T02:19:33;1.00;1.00;0.00
65360;PMS5003;51958;55.018;73.536;2023-04-01T02:22:38;1.00;1.00;0.00
65360;PMS5003;51958;55.018;73.536;2023-04-01T02:25:43;1.00;1.00;0.00
65360;PMS5003;51958;55.018;73.536;2023-04-01T02:28:46;0.00;0.00;0.00
65360;PMS5003;51958;55.018;73.536;2023-04-01T02:31:48;0.00;0.00;0.00
65360;PMS5003;51958;55.018;73.536;2023-04-01T02:34:51;0.00;0.00;0.00
65360;PMS5003;51958;55.018;73.536;2023-04-01T02:37:55;0.00;0.00;0.00
65360;PMS5003;51958;55.018;73.536;2023-04-01T02:40:58;0.00;0.00;0.00
65360;PMS5003;51958;55.018;73.536;2023-04-01T02:43:59;0.00;0.00;0.00
65360;PMS5003;51958;55.018;73.536;2023-04-01T02:47:00;0.00;0.00;0.00
65360;PMS5003;51958;55.018;73.536;2023-04-01T02:50:02;0.00;0.00;0.00
65360;PMS5003;51958;55.018;73.536;2023-04-01T02:53:09;0.00;0.00;0.00
65360;PMS5003;51958;55.018;73.536;2023-04-01T02:56:10;0.00;0.00;0.00
65360;PMS5003;51958;55.018;73.536;2023-04-01T02:59:11;0.00;0.00;0.00
65360;PMS5003;51958;55.018;73.536;2023-04-01T03:02:13;0.00;0.00;0.00
65360;PMS5003;51958;55.018;73.536;2023-04-01T03:05:14;0.00;0.00;0.00
65360;PMS5003;51958;55.018;73.536;2023-04-01T03:08:15;0.00;0.00;0.00
65360;PMS5003;51958;55.018;73.536;2023-04-01T03:11:17;0.00;0.00;0.00
65360;PMS5003;51958;55.018;73.536;2023-04-01T03:14:23;0.00;0.00;0.00
65360;PMS5003;51958;55.018;73.536;2023-04-01T03:17:24;0.00;0.00;0.00
65360;PMS5003;51958;55.018;73.536;2023-04-01T03:20:25;0.00;0.00;0.00
65360;PMS5003;51958;55.018;73.536;2023-04-01T03:23:26;0.00;0.00;0.00
65360;PMS5003;51958;55.018;73.536;2023-04-01T03:26:27;0.00;0.00;0.00
65360;PMS5003;51958;55.018;73.536;2023-04-01T03:29:28;0.00;0.00;0.00
65360;PMS5003;51958;55.018;73.536;2023-04-01T03:32:29;0.00;0.00;0.00
65360;PMS5003;51958;55.018;73.536;2023-04-01T03:35:31;0.00;0.00;0.00
65360;PMS5003;51958;55.018;73.536;2023-04-01T03:38:33;0.00;0.00;0.00
65360;PMS5003;51958;55.018;73.536;2023-04-01T03:41:35;0.00;0.00;0.00
65360;PMS5003;51958;55.018;73.536;2023-04-01T03:44:36;0.00;0.00;0.00
65360;PMS5003;51958;55.018;73.536;2023-04-01T03:47:38;0.00;0.00;0.00
65360;PMS5003;51958;55.018;73.536;2023-04-01T03:50:39;0.00;0.00;0.00
65360;PMS5003;51958;55.018;73.536;2023-04-01T03:53:40;0.00;0.00;0.00
65360;PMS5003;51958;55.018;73.536;2023-04-01T03:56:41;0.00;0.00;0.00
65360;PMS5003;51958;55.018;73.536;2023-04-01T03:59:42;0.00;0.00;0.00
65360;PMS5003;51958;55.018;73.536;2023-04-01T04:02:54;0.00;0.00;0.00
65360;PMS5003;51958;55.018;73.536;2023-04-01T04:06:03;0.00;0.00;0.00
65360;PMS5003;51958;55.018;73.536;2023-04-01T04:09:05;0.00;0.00;0.00
65360;PMS5003;51958;55.018;73.536;2023-04-01T04:12:06;0.00;0.00;0.00
65360;PMS5003;51958;55.018;73.536;2023-04-01T04:15:07;0.00;0.00;0.00
65360;PMS5003;51958;55.018;73.536;2023-04-01T04:18:09;0.00;0.00;0.00
65360;PMS5003;51958;55.018;73.536;2023-04-01T04:21:14;0.00;0.00;0.00
65360;PMS5003;51958;55.018;73.536;2023-04-01T04:24:15;0.00;0.00;0.00
65360;PMS5003;51958;55.018;73.536;2023-04-01T04:27:35;0.00;0.00;0.00
65360;PMS5003;51958;55.018;73.536;2023-04-01T04:30:51;0.00;0.00;0.00
65360;PMS5003;51958;55.018;73.536;2023-04-01T04:33:52;0.00;0.00;0.00
65360;PMS5003;51958;55.018;73.536;2023-04-01T04:36:54;0.00;0.00;0.00
65360;PMS5003;51958;55.018;73.536;2023-04-01T04:39:58;0.00;0.00;0.00
65360;PMS5003;51958;55.018;73.536;2023-04-01T04:43:05;0.00;0.00;0.00
65360;PMS5003;51958;55.018;73.536;2023-04-01T04:46:09;0.00;0.00;0.00
65360;PMS5003;51958;55.018;73.536;2023-04-01T04:49:11;0.00;0.00;0.00
65360;PMS5003;51958;55.018;73.536;2023-04-01T04:52:12;0.00;0.00;0.00
65360;PMS5003;51958;55.018;73.536;2023-04-01T04:55:14;0.00;0.00;0.00
65360;PMS5003;51958;55.018;73.536;2023-04-01T04:58:20;0.00;0.00;0.00
65360;PMS5003;51958;55.018;73.536;2023-04-01T05:01:21;0.00;0.00;0.00
65360;PMS5003;51958;55.018;73.536;2023-04-01T05:04:22;0.00;0.00;0.00
65360;PMS5003;51958;55.018;73.536;2023-04-01T05:07:23;0.00;0.00;0.00
65360;PMS5003;51958;55.018;73.536;2023-04-01T05:10:24;0.00;0.00;0.00
65360;PMS5003;51958;55.018;73.536;2023-04-01T05:13:26;0.00;0.00;0.00
65360;PMS5003;51958;55.018;73.536;2023-04-01T05:16:27;0.00;0.00;0.00
65360;PMS5003;51958;55.018;73.536;2023-04-01T05:19:28;0.00;0.00;0.00
65360;PMS5003;51958;55.018;73.536;2023-04-01T05:22:30;0.00;0.00;0.00
65360;PMS5003;51958;55.018;73.536;2023-04-01T05:25:32;0.00;0.00;0.00
65360;PMS5003;51958;55.018;73.536;2023-04-01T05:28:33;0.00;0.00;0.00
65360;PMS5003;51958;55.018;73.536;2023-04-01T05:31:34;0.00;0.00;0.00
65360;PMS5003;51958;55.018;73.536;2023-04-01T05:34:36;0.00;0.00;0.00
65360;PMS5003;51958;55.018;73.536;2023-04-01T05:37:37;0.00;0.00;0.00
65360;PMS5003;51958;55.018;73.536;2023-04-01T05:40:38;0.00;0.00;0.00
65360;PMS5003;51958;55.018;73.536;2023-04-01T05:43:40;0.00;0.00;0.00
65360;PMS5003;51958;55.018;73.536;2023-04-01T05:47:13;0.00;0.00;0.00
65360;PMS5003;51958;55.018;73.536;2023-04-01T05:50:15;0.00;0.00;0.00
65360;PMS5003;51958;55.018;73.536;2023-04-01T05:53:16;0.00;0.00;0.00
65360;PMS5003;51958;55.018;73.536;2023-04-01T05:56:18;0.00;0.00;0.00
65360;PMS5003;51958;55.018;73.536;2023-04-01T05:59:33;0.00;0.00;0.00
65360;PMS5003;51958;55.018;73.536;2023-04-01T06:02:35;0.00;0.00;0.00
65360;PMS5003;51958;55.018;73.536;2023-04-01T06:05:42;0.00;0.00;0.00
65360;PMS5003;51958;55.018;73.536;2023-04-01T06:08:43;0.00;0.00;0.00
65360;PMS5003;51958;55.018;73.536;2023-04-01T06:11:54;0.00;0.00;0.00
65360;PMS5003;51958;55.018;73.536;2023-04-01T06:15:00;1.00;0.00;0.00
65360;PMS5003;51958;55.018;73.536;2023-04-01T06:18:19;0.00;0.00;0.00
65360;PMS5003;51958;55.018;73.536;2023-04-01T06:24:40;0.00;0.00;0.00
65360;PMS5003;51958;55.018;73.536;2023-04-01T06:27:51;0.00;0.00;0.00
65360;PMS5003;51958;55.018;73.536;2023-04-01T06:37:23;0.00;0.00;0.00
65360;PMS5003;51958;55.018;73.536;2023-04-01T06:43:45;0.00;0.00;0.00
65360;PMS5003;51958;55.018;73.536;2023-04-01T06:47:23;0.00;0.00;0.00
65360;PMS5003;51958;55.018;73.536;2023-04-01T06:54:18;0.00;0.00;0.00
65360;PMS5003;51958;55.018;73.536;2023-04-01T06:57:47;0.00;0.00;0.00
65360;PMS5003;51958;55.018;73.536;2023-04-01T07:01:06;0.00;0.00;0.00
65360;PMS5003;51958;55.018;73.536;2023-04-01T07:04:13;0.00;0.00;0.00
65360;PMS5003;51958;55.018;73.536;2023-04-01T07:13:59;0.00;0.00;0.00
65360;PMS5003;51958;55.018;73.536;2023-04-01T07:23:21;0.00;0.00;0.00
65360;PMS5003;51958;55.018;73.536;2023-04-01T07:26:40;0.00;0.00;0.00
65360;PMS5003;51958;55.018;73.536;2023-04-01T07:29:47;0.00;0.00;0.00
65360;PMS5003;51958;55.018;73.536;2023-04-01T07:36:10;0.00;0.00;0.00
65360;PMS5003;51958;55.018;73.536;2023-04-01T07:51:56;0.00;0.00;0.00
65360;PMS5003;51958;55.018;73.536;2023-04-01T07:55:04;0.00;0.00;0.00
65360;PMS5003;51958;55.018;73.536;2023-04-01T08:15:26;0.00;0.00;0.00
65360;PMS5003;51958;55.018;73.536;2023-04-01T08:21:54;0.00;0.00;0.00
65360;PMS5003;51958;55.018;73.536;2023-04-01T08:24:59;0.00;0.00;0.00
65360;PMS5003;51958;55.018;73.536;2023-04-01T08:31:23;0.00;0.00;0.00
65360;PMS5003;51958;55.018;73.536;2023-04-01T08:34:28;0.00;0.00;0.00
65360;PMS5003;51958;55.018;73.536;2023-04-01T08:37:34;0.00;0.00;0.00
65360;PMS5003;51958;55.018;73.536;2023-04-01T09:00:22;0.00;0.00;0.00
65360;PMS5003;51958;55.018;73.536;2023-04-01T09:04:04;0.00;0.00;0.00
65360;PMS5003;51958;55.018;73.536;2023-04-01T09:07:29;0.00;0.00;0.00
65360;PMS5003;51958;55.018;73.536;2023-04-01T09:10:47;0.00;0.00;0.00
65360;PMS5003;51958;55.018;73.536;2023-04-01T09:27:45;0.00;0.00;0.00
65360;PMS5003;51958;55.018;73.536;2023-04-01T09:34:09;0.00;0.00;0.00
65360;PMS5003;51958;55.018;73.536;2023-04-01T09:40:54;0.00;0.00;0.00
65360;PMS5003;51958;55.018;73.536;2023-04-01T09:44:22;0.00;0.00;0.00
65360;PMS5003;51958;55.018;73.536;2023-04-01T09:47:57;0.00;0.00;0.00
65360;PMS5003;51958;55.018;73.536;2023-04-01T10:36:56;0.00;0.00;0.00
65360;PMS5003;51958;55.018;73.536;2023-04-01T10:44:18;0.00;0.00;0.00
65360;PMS5003;51958;55.018;73.536;2023-04-01T10:57:28;0.00;0.00;0.00
65360;PMS5003;51958;55.018;73.536;2023-04-01T11:07:52;0.00;0.00;0.00
65360;PMS5003;51958;55.018;73.536;2023-04-01T11:24:06;0.00;0.00;0.00
65360;PMS5003;51958;55.018;73.536;2023-04-01T11:33:44;0.00;0.00;0.00
65360;PMS5003;51958;55.018;73.536;2023-04-01T11:40:05;0.00;0.00;0.00
65360;PMS5003;51958;55.018;73.536;2023-04-01T11:50:03;0.00;0.00;0.00
65360;PMS5003;51958;55.018;73.536;2023-04-01T11:53:22;0.00;0.00;0.00
65360;PMS5003;51958;55.018;73.536;2023-04-01T12:19:20;0.00;0.00;0.00
65360;PMS5003;51958;55.018;73.536;2023-04-01T12:48:22;0.00;0.00;0.00
65360;PMS5003;51958;55.018;73.536;2023-04-01T13:27:21;0.00;0.00;0.00
65360;PMS5003;51958;55.018;73.536;2023-04-01T13:30:27;0.00;0.00;0.00
65360;PMS5003;51958;55.018;73.536;2023-04-01T13:33:43;0.00;0.00;0.00
65360;PMS5003;51958;55.018;73.536;2023-04-01T13:43:20;0.00;0.00;0.00
65360;PMS5003;51958;55.018;73.536;2023-04-01T13:46:32;1.00;0.50;0.00
65360;PMS5003;51958;55.018;73.536;2023-04-01T13:49:40;0.00;0.00;0.00
65360;PMS5003;51958;55.018;73.536;2023-04-01T13:59:40;2.00;2.00;0.00
65360;PMS5003;51958;55.018;73.536;2023-04-01T14:06:26;6.00;6.00;3.00
65360;PMS5003;51958;55.018;73.536;2023-04-01T14:12:44;4.00;4.00;1.00
65360;PMS5003;51958;55.018;73.536;2023-04-01T14:16:10;6.00;6.00;3.00
65360;PMS5003;51958;55.018;73.536;2023-04-01T14:50:45;4.50;3.50;1.00
65360;PMS5003;51958;55.018;73.536;2023-04-01T15:00:18;5.00;3.00;0.33
65360;PMS5003;51958;55.018;73.536;2023-04-01T15:19:42;0.00;0.00;0.00
65360;PMS5003;51958;55.018;73.536;2023-04-01T15:22:58;0.00;0.00;0.00
65360;PMS5003;51958;55.018;73.536;2023-04-01T15:26:11;0.67;0.00;0.00
65360;PMS5003;51958;55.018;73.536;2023-04-01T15:29:33;1.67;1.00;0.00
65360;PMS5003;51958;55.018;73.536;2023-04-01T15:39:14;0.00;0.00;0.00
65360;PMS5003;51958;55.018;73.536;2023-04-01T15:45:38;0.00;0.00;0.00
65360;PMS5003;51958;55.018;73.536;2023-04-01T15:52:01;0.00;0.00;0.00
65360;PMS5003;51958;55.018;73.536;2023-04-01T15:55:09;0.00;0.00;0.00
65360;PMS5003;51958;55.018;73.536;2023-04-01T16:17:55;0.00;0.00;0.00
65360;PMS5003;51958;55.018;73.536;2023-04-01T16:21:10;0.00;0.00;0.00
65360;PMS5003;51958;55.018;73.536;2023-04-01T16:27:36;0.00;0.00;0.00
65360;PMS5003;51958;55.018;73.536;2023-04-01T16:37:34;1.00;0.00;0.00
65360;PMS5003;51958;55.018;73.536;2023-04-01T16:47:12;0.00;0.00;0.00
65360;PMS5003;51958;55.018;73.536;2023-04-01T16:53:17;2.67;2.00;0.00
65360;PMS5003;51958;55.018;73.536;2023-04-01T16:56:24;2.33;1.00;0.00
65360;PMS5003;51958;55.018;73.536;2023-04-01T17:02:38;7.00;6.00;1.67
65360;PMS5003;51958;55.018;73.536;2023-04-01T17:05:49;5.00;3.33;1.00
65360;PMS5003;51958;55.018;73.536;2023-04-01T17:19:40;2.00;2.00;0.00
65360;PMS5003;51958;55.018;73.536;2023-04-01T17:22:27;1.00;1.00;0.00
65360;PMS5003;51958;55.018;73.536;2023-04-01T17:45:10;2.00;0.00;0.00
65360;PMS5003;51958;55.018;73.536;2023-04-01T17:58:40;4.00;3.00;0.00
65360;PMS5003;51958;55.018;73.536;2023-04-01T18:11:21;0.00;0.00;0.00
65360;PMS5003;51958;55.018;73.536;2023-04-01T18:27:28;0.00;0.00;0.00
65360;PMS5003;51958;55.018;73.536;2023-04-01T18:30:35;0.00;0.00;0.00
65360;PMS5003;51958;55.018;73.536;2023-04-01T18:57:03;0.00;0.00;0.00
65360;PMS5003;51958;55.018;73.536;2023-04-01T19:00:13;0.00;0.00;0.00
65360;PMS5003;51958;55.018;73.536;2023-04-01T19:03:21;0.00;0.00;0.00
65360;PMS5003;51958;55.018;73.536;2023-04-01T19:06:57;0.00;0.00;0.00
65360;PMS5003;51958;55.018;73.536;2023-04-01T19:09:52;0.00;0.00;0.00
65360;PMS5003;51958;55.018;73.536;2023-04-01T19:25:58;0.00;0.00;0.00
65360;PMS5003;51958;55.018;73.536;2023-04-01T19:32:24;0.00;0.00;0.00
65360;PMS5003;51958;55.018;73.536;2023-04-01T19:38:39;0.00;0.00;0.00
65360;PMS5003;51958;55.018;73.536;2023-04-01T19:41:45;0.00;0.00;0.00
65360;PMS5003;51958;55.018;73.536;2023-04-01T19:45:14;0.00;0.00;0.00
65360;PMS5003;51958;55.018;73.536;2023-04-01T19:48:41;0.00;0.00;0.00
65360;PMS5003;51958;55.018;73.536;2023-04-01T19:54:56;0.00;0.00;0.00
65360;PMS5003;51958;55.018;73.536;2023-04-01T19:58:05;0.00;0.00;0.00
65360;PMS5003;51958;55.018;73.536;2023-04-01T20:01:14;0.00;0.00;0.00
65360;PMS5003;51958;55.018;73.536;2023-04-01T20:04:38;0.00;0.00;0.00
65360;PMS5003;51958;55.018;73.536;2023-04-01T20:07:43;0.00;0.00;0.00
65360;PMS5003;51958;55.018;73.536;2023-04-01T20:10:54;0.00;0.00;0.00
65360;PMS5003;51958;55.018;73.536;2023-04-01T20:26:33;0.00;0.00;0.00
65360;PMS5003;51958;55.018;73.536;2023-04-01T20:32:43;0.00;0.00;0.00
65360;PMS5003;51958;55.018;73.536;2023-04-01T20:35:55;2.00;1.50;0.00
65360;PMS5003;51958;55.018;73.536;2023-04-01T20:58:56;0.00;0.00;0.00
65360;PMS5003;51958;55.018;73.536;2023-04-01T21:05:40;0.00;0.00;0.00
65360;PMS5003;51958;55.018;73.536;2023-04-01T21:12:02;0.00;0.00;0.00
65360;PMS5003;51958;55.018;73.536;2023-04-01T22:12:17;0.00;0.00;0.00
65360;PMS5003;51958;55.018;73.536;2023-04-01T22:15:28;0.50;0.00;0.00
65360;PMS5003;51958;55.018;73.536;2023-04-01T22:18:43;0.00;0.00;0.00
65360;PMS5003;51958;55.018;73.536;2023-04-01T22:25:07;0.00;0.00;0.00
65360;PMS5003;51958;55.018;73.536;2023-04-01T22:28:21;0.00;0.00;0.00
65360;PMS5003;51958;55.018;73.536;2023-04-01T22:31:36;0.00;0.00;0.00
65360;PMS5003;51958;55.018;73.536;2023-04-01T22:34:46;0.00;0.00;0.00
65360;PMS5003;51958;55.018;73.536;2023-04-01T22:37:53;0.00;0.00;0.00
65360;PMS5003;51958;55.018;73.536;2023-04-01T22:44:41;0.00;0.00;0.00
65360;PMS5003;51958;55.018;73.536;2023-04-01T22:54:04;0.00;0.00;0.00
65360;PMS5003;51958;55.018;73.536;2023-04-01T23:03:21;0.00;0.00;0.00
65360;PMS5003;51958;55.018;73.536;2023-04-01T23:06:42;0.00;0.00;0.00
65360;PMS5003;51958;55.018;73.536;2023-04-01T23:09:49;0.00;0.00;0.00
65360;PMS5003;51958;55.018;73.536;2023-04-01T23:12:51;0.00;0.00;0.00
65360;PMS5003;51958;55.018;73.536;2023-04-01T23:16:04;0.00;0.00;0.00
65360;PMS5003;51958;55.018;73.536;2023-04-01T23:19:11;0.00;0.00;0.00
65360;PMS5003;51958;55.018;73.536;2023-04-01T23:28:45;0.00;0.00;0.00
65360;PMS5003;51958;55.018;73.536;2023-04-01T23:31:56;0.00;0.00;0.00
65360;PMS5003;51958;55.018;73.536;2023-04-01T23:34:58;0.00;0.00;0.00
65360;PMS5003;51958;55.018;73.536;2023-04-01T23:38:00;0.00;0.00;0.00
65360;PMS5003;51958;55.018;73.536;2023-04-01T23:41:19;0.00;0.00;0.00
65360;PMS5003;51958;55.018;73.536;2023-04-01T23:44:31;0.00;0.00;0.00
65360;PMS5003;51958;55.018;73.536;2023-04-01T23:47:34;0.00;0.00;0.00
65360;PMS5003;51958;55.018;73.536;2023-04-01T23:50:37;0.00;0.00;0.00
65360;PMS5003;51958;55.018;73.536;2023-04-01T23:53:38;0.00;0.00;0.00
65360;PMS5003;51958;55.018;73.536;2023-04-01T23:56:53;0.00;0.00;0.00
